KHUL

Details ICAO KHUL (HUL)
Name HOULTON INTL
Region United States
Timezone America/New_York (UTC-5.0)
Plans Departing 4
Arriving 4
Stats Elevation 489 ft / 149 m (AMSL)
Location 46.123686° -67.792451°
Runways 2
Magnetic Variation 16.882° W
Sunrise 2017-12-16 12:09:03 UTC / 2017-12-16 07:09:03 Local
Sunset 2017-12-16 20:47:30 UTC / 2017-12-16 15:47:30 Local
Advertisement - Login to hide

Runways

ID Width Length Bearing (true) Bearing (mag) Surface Threshold Offset Overrun Length
01 150 ft / 46 m 5,001 ft / 1,524 m 351.95° 8.83° Asphalt 0 ft / 0 m 0 ft / 0 m
05 150 ft / 46 m 5,015 ft / 1,529 m 31.13° 48.01° Asphalt 0 ft / 0 m 0 ft / 0 m
19 150 ft / 46 m 5,001 ft / 1,524 m 171.95° 188.83° Asphalt 0 ft / 0 m 0 ft / 0 m
23 150 ft / 46 m 5,015 ft / 1,529 m 211.14° 228.02° Asphalt 0 ft / 0 m 0 ft / 0 m

Map

Weather


0- 5 10 15 20 25 30 35+ Temperature / ° C

Clouds and Precipitation
Forecast for 2017-12-16 12:00 UTC. Updated 2 hours ago

Ground ~20,000 ft ~40,000 ft Winds

METAR

KHUL 161253Z AUTO 02003KT 10SM FEW095 M17/M18 A2975 RMK AO2 SLP086 T11671178

TAF

KHUL 161134Z 1612/1712 VRB03KT P6SM VCSH OVC050 FM161400 33005KT P6SM BKN035 FM162100 32006KT P6SM SCT090

Frequencies

Recorded 132.02 MHz ASOS
Unicom 122.80 MHz CTAF/UNICOM
Warning: Do not use this data for real-world aviation or navigation. No guarantee of current accuracy is given.